createdAt,value
2018-09-27T00:01:01.162Z,81.80
2018-09-27T00:04:07.030Z,82.00
2018-09-27T00:07:12.373Z,82.20
2018-09-27T00:10:17.746Z,82.10
2018-09-27T00:13:23.110Z,82.30
2018-09-27T00:16:28.774Z,82.30
2018-09-27T00:19:34.215Z,82.50
2018-09-27T00:22:39.734Z,82.90
2018-09-27T00:25:45.131Z,82.60
2018-09-27T00:28:50.545Z,82.50
2018-09-27T00:31:55.986Z,82.40
2018-09-27T00:35:01.365Z,82.30
2018-09-27T00:38:06.786Z,82.00
2018-09-27T00:41:12.157Z,82.10
2018-09-27T00:44:17.548Z,82.00
2018-09-27T00:47:22.903Z,82.10
2018-09-27T00:50:28.390Z,82.10
2018-09-27T00:53:33.749Z,82.10
2018-09-27T00:56:39.122Z,81.80
2018-09-27T00:59:44.506Z,81.60
2018-09-27T01:02:49.895Z,81.50
2018-09-27T01:05:55.290Z,81.50
2018-09-27T01:09:00.649Z,81.50
2018-09-27T01:12:06.053Z,81.40
2018-09-27T01:15:11.435Z,82.10
2018-09-27T01:18:16.794Z,81.40
2018-09-27T01:21:22.186Z,81.30
2018-09-27T01:24:27.569Z,81.00
2018-09-27T01:27:33.058Z,80.90
2018-09-27T01:30:38.436Z,80.80
2018-09-27T01:33:43.925Z,80.80
2018-09-27T01:36:49.695Z,80.90
2018-09-27T01:39:55.095Z,81.10
2018-09-27T01:43:00.462Z,81.40
2018-09-27T01:46:05.898Z,81.50
2018-09-27T01:49:11.261Z,81.40
2018-09-27T01:52:16.637Z,81.50
2018-09-27T01:55:22.399Z,81.50
2018-09-27T01:58:27.767Z,81.30
2018-09-27T02:01:33.557Z,81.50
2018-09-27T02:04:38.927Z,81.70
2018-09-27T02:07:44.358Z,81.60
2018-09-27T02:10:49.902Z,81.80
2018-09-27T02:13:55.377Z,82.00
2018-09-27T02:17:02.293Z,81.90
2018-09-27T02:20:07.717Z,81.80
2018-09-27T02:23:13.053Z,82.80
2018-09-27T02:26:18.462Z,82.10
2018-09-27T02:29:23.831Z,82.10
2018-09-27T02:32:29.280Z,82.20
2018-09-27T02:35:34.737Z,82.40
2018-09-27T02:38:40.158Z,82.50
2018-09-27T02:41:45.720Z,82.60
2018-09-27T02:44:51.127Z,82.70
2018-09-27T02:47:56.531Z,82.70
2018-09-27T02:51:01.951Z,82.90
2018-09-27T02:54:07.371Z,82.90
2018-09-27T02:57:12.848Z,82.90
2018-09-27T03:00:18.342Z,83.00
2018-09-27T03:03:23.744Z,83.00
2018-09-27T03:06:29.199Z,83.10
2018-09-27T03:09:34.604Z,83.30
2018-09-27T03:12:40.287Z,83.20
2018-09-27T03:15:45.702Z,82.50
2018-09-27T03:18:51.621Z,83.40
2018-09-27T03:21:57.043Z,83.30
2018-09-27T03:25:02.436Z,83.30
2018-09-27T03:28:07.851Z,83.40
2018-09-27T03:31:13.254Z,83.60
2018-09-27T03:34:18.744Z,83.90
2018-09-27T03:37:24.514Z,84.10
2018-09-27T03:40:30.014Z,84.10
2018-09-27T03:43:35.814Z,84.30
2018-09-27T03:46:41.231Z,84.50
2018-09-27T03:49:46.641Z,84.50
2018-09-27T03:52:52.155Z,84.60
2018-09-27T03:55:57.547Z,84.70
2018-09-27T03:59:03.923Z,84.80
2018-09-27T04:02:09.363Z,84.70
2018-09-27T04:05:14.757Z,84.80
2018-09-27T04:08:20.178Z,84.70
2018-09-27T04:11:25.606Z,84.70
2018-09-27T04:14:31.033Z,84.80
2018-09-27T04:17:36.601Z,84.70
2018-09-27T04:20:47.334Z,85.00
2018-09-27T04:23:52.789Z,85.10
2018-09-27T04:26:58.470Z,85.20
2018-09-27T04:30:03.923Z,85.50
2018-09-27T04:33:09.446Z,85.70
2018-09-27T04:36:14.863Z,85.70
2018-09-27T04:39:20.268Z,85.70
2018-09-27T04:42:25.667Z,85.60
2018-09-27T04:45:31.563Z,85.70
2018-09-27T04:48:36.970Z,85.70
2018-09-27T04:51:43.309Z,85.80
2018-09-27T04:54:49.014Z,85.90
2018-09-27T04:57:54.419Z,86.00
2018-09-27T05:00:59.866Z,86.30
2018-09-27T05:04:05.348Z,86.40
2018-09-27T05:07:10.774Z,86.50
2018-09-27T05:10:16.183Z,86.60
2018-09-27T05:13:21.603Z,86.40
2018-09-27T05:16:27.010Z,86.60
2018-09-27T05:19:32.423Z,86.70
2018-09-27T05:22:37.909Z,86.70
2018-09-27T05:25:43.387Z,86.70
2018-09-27T05:28:48.782Z,86.80
2018-09-27T05:31:54.731Z,87.60
2018-09-27T05:35:00.166Z,86.90
2018-09-27T05:38:05.599Z,86.90
2018-09-27T05:41:11.003Z,86.90
2018-09-27T05:44:16.439Z,87.00
2018-09-27T05:47:21.867Z,86.80
2018-09-27T05:50:27.247Z,86.70
2018-09-27T05:53:32.691Z,86.40
2018-09-27T05:56:38.104Z,86.50
2018-09-27T05:59:44.303Z,86.40
2018-09-27T06:02:49.752Z,86.60
2018-09-27T06:05:55.163Z,86.50
2018-09-27T06:09:00.608Z,86.10
2018-09-27T06:12:06.007Z,86.30
2018-09-27T06:15:11.443Z,86.00
2018-09-27T06:18:16.910Z,85.70
2018-09-27T06:21:22.329Z,86.40
2018-09-27T06:24:28.284Z,85.70
2018-09-27T06:27:33.700Z,85.80
2018-09-27T06:30:39.397Z,85.70
2018-09-27T06:33:45.042Z,85.40
2018-09-27T06:36:50.459Z,85.80
2018-09-27T06:39:55.922Z,86.00
2018-09-27T06:43:01.428Z,85.80
2018-09-27T06:46:07.149Z,86.00
2018-09-27T06:49:12.597Z,86.10
2018-09-27T06:52:18.020Z,85.70
2018-09-27T06:55:24.285Z,85.30
2018-09-27T06:58:30.390Z,85.30
2018-09-27T07:01:35.852Z,85.20
2018-09-27T07:04:44.216Z,85.00
2018-09-27T07:07:52.103Z,84.40
2018-09-27T07:10:57.819Z,84.40
2018-09-27T07:14:04.616Z,84.80
2018-09-27T07:17:10.033Z,84.50
2018-09-27T07:20:15.564Z,84.80
2018-09-27T07:23:21.179Z,85.10
2018-09-27T07:26:27.368Z,85.30
2018-09-27T07:29:32.998Z,85.20
2018-09-27T07:32:38.556Z,85.20
2018-09-27T07:35:44.160Z,85.20
2018-09-27T07:38:49.597Z,85.30
2018-09-27T07:41:55.146Z,85.30
2018-09-27T07:45:01.281Z,85.30
2018-09-27T07:48:06.893Z,85.40
2018-09-27T07:51:12.567Z,85.50
2018-09-27T07:54:18.217Z,85.40
2018-09-27T07:57:23.875Z,85.40
2018-09-27T08:00:29.434Z,85.20
2018-09-27T08:03:34.855Z,84.80
2018-09-27T08:06:40.419Z,85.00
2018-09-27T08:09:45.862Z,84.80
2018-09-27T08:12:51.442Z,85.00
2018-09-27T08:15:56.943Z,85.00
2018-09-27T08:19:02.446Z,85.20
2018-09-27T08:22:08.150Z,85.10
2018-09-27T08:25:13.588Z,85.10
2018-09-27T08:28:19.139Z,85.10
2018-09-27T08:31:24.655Z,85.10
2018-09-27T08:34:30.222Z,85.00
2018-09-27T08:37:35.814Z,83.60
2018-09-27T08:40:41.780Z,83.00
2018-09-27T08:43:47.207Z,82.60
2018-09-27T08:46:52.684Z,82.50
2018-09-27T08:49:58.191Z,82.20
2018-09-27T08:53:04.359Z,82.50
2018-09-27T08:56:10.335Z,82.40
2018-09-27T08:59:16.702Z,82.20
2018-09-27T09:02:22.127Z,81.90
2018-09-27T09:05:27.566Z,81.80
2018-09-27T09:08:32.987Z,81.60
2018-09-27T09:11:38.965Z,81.20
2018-09-27T09:14:44.428Z,80.90
2018-09-27T09:17:50.479Z,80.80
2018-09-27T09:20:55.919Z,80.50
2018-09-27T09:24:01.521Z,80.10
2018-09-27T09:27:07.867Z,80.10
2018-09-27T09:30:13.648Z,79.00
2018-09-27T09:33:19.072Z,78.30
2018-09-27T09:36:24.545Z,78.20
2018-09-27T09:39:30.005Z,77.50
2018-09-27T09:42:35.516Z,77.20
2018-09-27T09:45:40.979Z,77.00
2018-09-27T09:48:46.448Z,76.90
2018-09-27T09:51:51.879Z,76.60
2018-09-27T09:54:57.739Z,76.40
2018-09-27T09:58:03.130Z,76.30
2018-09-27T10:01:09.515Z,76.30
2018-09-27T10:04:15.364Z,75.40
2018-09-27T10:07:20.775Z,75.10
2018-09-27T10:10:26.945Z,74.10
2018-09-27T10:13:32.351Z,73.20
2018-09-27T10:16:38.031Z,72.40
2018-09-27T10:19:43.623Z,72.70
2018-09-27T10:22:49.815Z,72.00
2018-09-27T10:25:57.343Z,71.50
2018-09-27T10:29:03.690Z,71.60
2018-09-27T10:32:09.286Z,71.20
2018-09-27T10:35:14.703Z,70.80
2018-09-27T10:38:20.116Z,70.80
2018-09-27T10:41:25.526Z,70.20
2018-09-27T10:44:30.914Z,70.10
2018-09-27T10:47:36.770Z,69.80
2018-09-27T10:50:42.178Z,69.60
2018-09-27T10:53:47.595Z,69.40
2018-09-27T10:56:53.031Z,69.60
2018-09-27T10:59:58.432Z,69.80
2018-09-27T11:03:03.934Z,70.30
2018-09-27T11:06:09.347Z,69.70
2018-09-27T11:09:14.727Z,69.00
2018-09-27T11:12:20.175Z,69.20
2018-09-27T11:15:25.607Z,69.40
2018-09-27T11:18:32.175Z,68.60
2018-09-27T11:21:37.684Z,68.10
2018-09-27T11:24:43.075Z,67.90
2018-09-27T11:27:48.539Z,67.70
2018-09-27T11:30:59.043Z,67.10
2018-09-27T11:34:04.491Z,66.90
2018-09-27T11:37:10.279Z,66.20
2018-09-27T11:40:15.682Z,65.10
2018-09-27T11:43:21.211Z,64.80
2018-09-27T11:46:26.655Z,63.80
2018-09-27T11:49:32.307Z,63.10
2018-09-27T11:52:37.959Z,61.70
2018-09-27T11:55:43.351Z,61.90
2018-09-27T11:58:48.868Z,62.20
2018-09-27T12:01:54.295Z,62.50
2018-09-27T12:05:00.073Z,63.00
2018-09-27T12:08:05.967Z,63.30
2018-09-27T12:11:12.067Z,63.60
2018-09-27T12:14:17.700Z,63.00
2018-09-27T12:17:23.188Z,62.00
2018-09-27T12:20:28.835Z,61.10
2018-09-27T12:23:34.727Z,61.70
2018-09-27T12:26:40.141Z,61.10
2018-09-27T12:29:45.711Z,59.80
2018-09-27T12:32:51.179Z,60.20
2018-09-27T12:35:57.207Z,60.80
2018-09-27T12:39:02.662Z,59.90
2018-09-27T12:42:08.725Z,58.20
2018-09-27T12:45:14.283Z,57.90
2018-09-27T12:48:19.839Z,58.80
2018-09-27T12:51:25.534Z,58.00
2018-09-27T12:54:31.171Z,57.30
2018-09-27T12:57:36.594Z,57.90
2018-09-27T13:00:42.726Z,58.90
2018-09-27T13:03:48.239Z,59.50
2018-09-27T13:06:53.823Z,60.20
2018-09-27T13:09:59.628Z,61.30
2018-09-27T13:13:05.904Z,62.20
2018-09-27T13:16:11.653Z,62.80
2018-09-27T13:19:17.245Z,62.40
2018-09-27T13:22:23.071Z,61.70
2018-09-27T13:25:28.514Z,60.40
2018-09-27T13:28:33.954Z,59.80
2018-09-27T13:31:39.675Z,58.20
2018-09-27T13:34:45.146Z,58.00
2018-09-27T13:37:50.693Z,57.10
2018-09-27T13:40:56.314Z,57.70
2018-09-27T13:44:01.799Z,58.60
2018-09-27T13:47:07.739Z,59.40
2018-09-27T13:50:14.743Z,60.60
2018-09-27T13:53:20.164Z,61.10
2018-09-27T13:56:25.574Z,61.90
2018-09-27T13:59:31.351Z,62.20
2018-09-27T14:02:37.003Z,63.00
2018-09-27T14:05:42.432Z,63.90
2018-09-27T14:08:47.867Z,64.30
2018-09-27T14:11:53.258Z,64.60
2018-09-27T14:14:58.693Z,65.00
2018-09-27T14:18:04.119Z,65.60
2018-09-27T14:21:11.799Z,64.90
2018-09-27T14:24:17.251Z,65.00
2018-09-27T14:27:22.726Z,64.90
2018-09-27T14:30:28.202Z,65.10
2018-09-27T14:33:33.635Z,65.40
2018-09-27T14:36:39.801Z,65.60
2018-09-27T14:39:45.383Z,65.40
2018-09-27T14:42:51.581Z,65.50
2018-09-27T14:45:57.047Z,65.60
2018-09-27T14:49:02.476Z,65.40
2018-09-27T14:52:08.517Z,65.40
2018-09-27T14:55:20.112Z,65.80
2018-09-27T14:58:28.510Z,66.00
2018-09-27T15:01:34.259Z,66.10
2018-09-27T15:04:39.940Z,66.40
2018-09-27T15:07:45.834Z,66.80
2018-09-27T15:10:51.361Z,66.80
2018-09-27T15:13:56.998Z,66.80
2018-09-27T15:17:03.255Z,67.10
2018-09-27T15:20:09.398Z,67.60
2018-09-27T15:23:15.078Z,67.40
2018-09-27T15:26:20.584Z,67.70
2018-09-27T15:29:26.919Z,68.10
2018-09-27T15:32:32.413Z,68.20
2018-09-27T15:35:37.982Z,68.30
2018-09-27T15:38:43.560Z,68.30
2018-09-27T15:41:49.043Z,68.70
2018-09-27T15:44:54.551Z,69.20
2018-09-27T15:48:00.001Z,69.30
2018-09-27T15:51:05.568Z,69.60
2018-09-27T15:57:43.723Z,69.70
2018-09-27T16:00:49.155Z,70.00
2018-09-27T16:03:54.642Z,70.40
2018-09-27T16:07:00.172Z,70.60
2018-09-27T16:10:05.998Z,70.50
2018-09-27T16:13:11.445Z,70.80
2018-09-27T16:16:16.951Z,71.00
2018-09-27T16:19:22.747Z,70.60
2018-09-27T16:22:28.187Z,70.30
2018-09-27T16:28:50.327Z,70.90
2018-09-27T16:31:55.811Z,70.70
2018-09-27T16:35:01.334Z,70.80
2018-09-27T16:38:07.559Z,71.50
2018-09-27T16:41:14.227Z,70.70
2018-09-27T16:44:19.735Z,70.70
2018-09-27T16:47:25.169Z,70.80
2018-09-27T16:50:30.594Z,71.00
2018-09-27T16:53:36.009Z,71.10
2018-09-27T16:56:42.232Z,71.10
2018-09-27T16:59:59.218Z,71.40
2018-09-27T17:03:04.654Z,71.70
2018-09-27T17:06:10.191Z,72.00
2018-09-27T17:09:15.615Z,72.20
2018-09-27T17:12:21.356Z,72.20
2018-09-27T17:15:26.928Z,72.40
2018-09-27T17:18:32.419Z,72.40
2018-09-27T17:21:37.871Z,72.30
2018-09-27T17:24:43.436Z,72.50
2018-09-27T17:27:49.182Z,72.50
2018-09-27T17:30:54.703Z,72.60
2018-09-27T17:34:00.636Z,72.90
2018-09-27T17:37:07.087Z,73.10
2018-09-27T17:40:12.576Z,73.50
2018-09-27T17:43:18.283Z,74.00
2018-09-27T17:46:23.851Z,74.50
2018-09-27T17:49:29.411Z,74.60
2018-09-27T17:52:35.237Z,75.00
2018-09-27T17:55:40.916Z,75.20
2018-09-27T17:58:46.550Z,75.30
2018-09-27T18:01:54.416Z,75.70
2018-09-27T18:04:59.954Z,75.90
2018-09-27T18:08:06.089Z,75.90
2018-09-27T18:11:20.610Z,76.00
2018-09-27T18:14:26.064Z,76.40
2018-09-27T18:17:31.557Z,76.90
2018-09-27T18:20:36.999Z,77.10
2018-09-27T18:23:42.490Z,77.90
2018-09-27T18:26:48.063Z,78.20
2018-09-27T18:29:53.503Z,78.00
2018-09-27T18:32:58.960Z,78.00
2018-09-27T18:36:05.119Z,78.10
2018-09-27T18:39:11.803Z,78.30
2018-09-27T18:42:17.279Z,79.00
2018-09-27T18:45:23.215Z,79.10
2018-09-27T18:48:28.639Z,79.40
2018-09-27T18:51:34.104Z,79.60
2018-09-27T18:54:39.632Z,79.50
2018-09-27T18:57:45.070Z,79.80
2018-09-27T19:00:50.727Z,80.00
2018-09-27T19:03:56.155Z,80.30
2018-09-27T19:07:01.654Z,80.50
2018-09-27T19:10:07.127Z,80.70
2018-09-27T19:13:12.598Z,80.90
2018-09-27T19:16:20.912Z,81.10
2018-09-27T19:19:28.643Z,81.30
2018-09-27T19:22:34.071Z,81.60
2018-09-27T19:25:39.651Z,81.80
2018-09-27T19:28:45.119Z,82.00
2018-09-27T19:31:50.867Z,82.50
2018-09-27T19:34:56.415Z,82.50
2018-09-27T19:38:02.115Z,82.70
2018-09-27T19:41:07.870Z,82.70
2018-09-27T19:44:13.445Z,82.90
2018-09-27T19:47:18.922Z,82.90
2018-09-27T19:50:24.371Z,83.00
2018-09-27T19:53:29.809Z,83.20
2018-09-27T19:56:35.304Z,83.20
2018-09-27T19:59:41.450Z,83.30
2018-09-27T20:02:46.954Z,83.30
2018-09-27T20:05:52.671Z,83.20
2018-09-27T20:08:58.120Z,83.00
2018-09-27T20:12:03.576Z,82.90
2018-09-27T20:15:09.026Z,83.70
2018-09-27T20:18:14.480Z,82.70
2018-09-27T20:21:20.127Z,82.60
2018-09-27T20:24:25.572Z,82.60
2018-09-27T20:27:30.991Z,82.20
2018-09-27T20:30:36.407Z,81.80
2018-09-27T20:33:41.874Z,81.70
2018-09-27T20:36:47.402Z,81.30
2018-09-27T20:39:53.179Z,80.90
2018-09-27T20:42:58.591Z,80.40
2018-09-27T20:46:04.154Z,79.30
2018-09-27T20:49:09.567Z,79.40
2018-09-27T20:52:15.704Z,78.30
2018-09-27T20:55:21.183Z,77.70
2018-09-27T20:58:26.623Z,77.00
2018-09-27T21:01:36.229Z,76.60
2018-09-27T21:04:47.095Z,76.70
2018-09-27T21:07:52.547Z,76.60
2018-09-27T21:10:57.982Z,76.70
2018-09-27T21:14:03.551Z,76.80
2018-09-27T21:17:09.033Z,77.00
2018-09-27T21:20:14.453Z,76.50
2018-09-27T21:23:19.914Z,76.10
2018-09-27T21:26:25.443Z,75.90
2018-09-27T21:29:31.363Z,75.80
2018-09-27T21:32:37.247Z,75.70
2018-09-27T21:35:42.955Z,75.70
2018-09-27T21:38:48.556Z,75.40
2018-09-27T21:41:54.019Z,76.00
2018-09-27T21:44:59.535Z,76.10
2018-09-27T21:48:05.379Z,75.90
2018-09-27T21:51:10.848Z,75.80
2018-09-27T21:54:16.488Z,75.90
2018-09-27T21:57:21.968Z,75.90
2018-09-27T22:00:27.478Z,76.60
2018-09-27T22:03:32.979Z,75.90
2018-09-27T22:06:38.486Z,76.10
2018-09-27T22:09:44.499Z,76.20
2018-09-27T22:12:49.953Z,76.10
2018-09-27T22:15:56.065Z,75.90
2018-09-27T22:19:01.559Z,75.90
2018-09-27T22:22:07.192Z,75.80
2018-09-27T22:25:12.910Z,75.80
2018-09-27T22:28:18.331Z,75.90
2018-09-27T22:31:23.788Z,76.10
2018-09-27T22:34:29.482Z,77.10
2018-09-27T22:37:35.127Z,77.60
2018-09-27T22:40:40.584Z,78.30
2018-09-27T22:43:46.028Z,79.00
2018-09-27T22:46:51.639Z,79.40
2018-09-27T22:49:57.362Z,80.20
2018-09-27T22:53:02.854Z,80.50
2018-09-27T22:56:08.357Z,80.90
2018-09-27T22:59:13.831Z,81.50
2018-09-27T23:02:19.531Z,81.40
2018-09-27T23:05:25.227Z,81.70
2018-09-27T23:08:30.677Z,82.20
2018-09-27T23:11:36.127Z,83.70
2018-09-27T23:14:41.689Z,85.50
2018-09-27T23:17:47.111Z,86.70
2018-09-27T23:20:52.576Z,87.20
2018-09-27T23:23:58.299Z,88.30
2018-09-27T23:27:04.607Z,88.80
2018-09-27T23:30:10.071Z,88.40
2018-09-27T23:33:15.535Z,88.90
2018-09-27T23:36:21.730Z,88.30
2018-09-27T23:39:27.161Z,88.40
2018-09-27T23:42:33.184Z,88.20
2018-09-27T23:45:38.714Z,87.10
2018-09-27T23:48:44.142Z,86.50
2018-09-27T23:51:50.059Z,86.10
2018-09-27T23:54:55.637Z,85.90
2018-09-27T23:58:01.128Z,85.50
